createdAt,value
2022-09-26T00:01:35.919Z,95.00
2022-09-26T00:04:09.954Z,95.00
2022-09-26T00:06:37.103Z,94.90
2022-09-26T00:09:04.196Z,94.80
2022-09-26T00:11:34.271Z,94.70
2022-09-26T00:14:07.573Z,94.60
2022-09-26T00:16:35.270Z,94.50
2022-09-26T00:19:02.729Z,94.40
2022-09-26T00:21:30.304Z,94.40
2022-09-26T00:23:58.848Z,94.10
2022-09-26T00:26:28.315Z,94.30
2022-09-26T00:28:56.247Z,94.70
2022-09-26T00:31:31.144Z,94.40
2022-09-26T00:33:58.973Z,94.60
2022-09-26T00:36:37.557Z,94.60
2022-09-26T00:39:08.550Z,94.60
2022-09-26T00:41:36.986Z,94.60
2022-09-26T00:44:33.323Z,94.60
2022-09-26T00:47:00.737Z,94.60
2022-09-26T00:49:38.010Z,94.60
2022-09-26T00:52:15.934Z,94.60
2022-09-26T00:54:48.537Z,94.60
2022-09-26T00:57:31.570Z,94.70
2022-09-26T01:00:05.669Z,94.70
2022-09-26T01:02:32.711Z,94.60
2022-09-26T01:05:00.392Z,94.70
2022-09-26T01:07:29.725Z,94.70
2022-09-26T01:09:57.698Z,94.80
2022-09-26T01:12:24.944Z,94.80
2022-09-26T01:14:54.759Z,94.80
2022-09-26T01:17:25.029Z,94.80
2022-09-26T01:21:04.868Z,94.70
2022-09-26T01:24:24.918Z,94.60
2022-09-26T01:27:28.153Z,94.60
2022-09-26T01:30:22.089Z,94.60
2022-09-26T01:33:07.712Z,94.60
2022-09-26T01:36:25.733Z,94.60
2022-09-26T01:39:07.446Z,94.60
2022-09-26T01:42:07.323Z,94.50
2022-09-26T01:45:01.455Z,94.60
2022-09-26T01:47:51.430Z,94.60
2022-09-26T01:50:36.699Z,94.60
2022-09-26T01:53:15.954Z,94.50
2022-09-26T01:55:54.581Z,94.50
2022-09-26T01:58:33.244Z,94.50
2022-09-26T02:01:09.113Z,94.50
2022-09-26T02:03:45.466Z,94.50
2022-09-26T02:06:25.541Z,94.40
2022-09-26T02:09:48.019Z,94.50
2022-09-26T02:12:26.414Z,94.50
2022-09-26T02:14:59.427Z,94.60
2022-09-26T02:17:36.079Z,94.70
2022-09-26T02:20:14.895Z,94.80
2022-09-26T02:22:44.030Z,94.80
2022-09-26T02:25:15.100Z,94.80
2022-09-26T02:27:41.952Z,94.70
2022-09-26T02:30:10.763Z,94.80
2022-09-26T02:32:38.268Z,94.90
2022-09-26T02:35:25.213Z,94.80
2022-09-26T02:37:53.416Z,94.90
2022-09-26T02:40:36.709Z,94.80
2022-09-26T02:43:44.951Z,94.90
2022-09-26T02:46:41.301Z,94.90
2022-09-26T02:49:50.265Z,94.90
2022-09-26T02:52:33.115Z,94.90
2022-09-26T02:55:18.094Z,94.90
2022-09-26T02:58:30.879Z,94.70
2022-09-26T03:01:30.948Z,94.50
2022-09-26T03:04:08.264Z,94.60
2022-09-26T03:06:43.058Z,94.60
2022-09-26T03:09:11.892Z,94.70
2022-09-26T03:11:41.582Z,94.60
2022-09-26T03:14:10.594Z,94.70
2022-09-26T03:16:44.237Z,94.70
2022-09-26T03:19:26.848Z,94.70
2022-09-26T03:21:54.468Z,94.60
2022-09-26T03:24:23.883Z,94.50
2022-09-26T03:26:51.605Z,94.50
2022-09-26T03:29:20.323Z,94.50
2022-09-26T03:31:50.233Z,94.50
2022-09-26T03:34:18.806Z,94.50
2022-09-26T03:36:46.903Z,94.30
2022-09-26T03:39:14.375Z,94.30
2022-09-26T03:41:49.508Z,94.30
2022-09-26T03:44:22.523Z,94.20
2022-09-26T03:47:04.974Z,94.20
2022-09-26T03:49:36.541Z,94.10
2022-09-26T03:52:04.505Z,93.90
2022-09-26T03:54:31.787Z,93.80
2022-09-26T03:56:58.614Z,93.80
2022-09-26T03:59:25.412Z,93.80
2022-09-26T04:01:52.470Z,93.80
2022-09-26T04:04:19.382Z,93.90
2022-09-26T04:06:46.345Z,93.90
2022-09-26T04:09:17.513Z,93.90
2022-09-26T04:11:48.592Z,94.00
2022-09-26T04:14:15.628Z,94.10
2022-09-26T04:16:44.395Z,94.10
2022-09-26T04:19:23.442Z,94.10
2022-09-26T04:21:52.052Z,93.90
2022-09-26T04:24:21.302Z,93.80
2022-09-26T04:26:48.776Z,93.80
2022-09-26T04:29:16.628Z,93.80
2022-09-26T04:32:06.349Z,93.60
2022-09-26T04:35:11.497Z,93.60
2022-09-26T04:37:38.367Z,93.50
2022-09-26T04:40:05.654Z,93.30
2022-09-26T04:42:36.876Z,93.40
2022-09-26T04:45:05.691Z,93.20
2022-09-26T04:47:32.971Z,93.20
2022-09-26T04:50:26.163Z,93.20
2022-09-26T04:53:06.355Z,93.00
2022-09-26T04:55:36.631Z,93.00
2022-09-26T04:58:03.810Z,93.00
2022-09-26T05:00:31.549Z,93.10
2022-09-26T05:03:02.980Z,93.10
2022-09-26T05:05:31.190Z,93.10
2022-09-26T05:07:57.999Z,92.80
2022-09-26T05:10:24.998Z,92.80
2022-09-26T05:13:00.767Z,92.80
2022-09-26T05:15:27.852Z,92.70
2022-09-26T05:18:01.420Z,92.70
2022-09-26T05:20:31.698Z,92.60
2022-09-26T05:23:06.770Z,92.50
2022-09-26T05:25:59.518Z,92.30
2022-09-26T05:28:27.430Z,92.10
2022-09-26T05:30:54.464Z,92.10
2022-09-26T05:33:22.306Z,92.00
2022-09-26T05:35:54.741Z,91.90
2022-09-26T05:38:21.706Z,91.80
2022-09-26T05:40:59.343Z,91.80
2022-09-26T05:43:31.375Z,91.80
2022-09-26T05:46:07.436Z,91.70
2022-09-26T05:48:40.198Z,91.60
2022-09-26T05:51:17.254Z,91.50
2022-09-26T05:53:46.185Z,91.50
2022-09-26T05:56:19.342Z,91.20
2022-09-26T05:59:15.806Z,91.10
2022-09-26T06:02:01.439Z,91.10
2022-09-26T06:04:52.365Z,90.90
2022-09-26T06:07:37.488Z,91.00
2022-09-26T06:10:08.797Z,90.90
2022-09-26T06:12:53.728Z,91.00
2022-09-26T06:15:21.078Z,91.00
2022-09-26T06:17:48.688Z,91.00
2022-09-26T06:20:16.580Z,91.00
2022-09-26T06:22:44.026Z,91.00
2022-09-26T06:25:12.224Z,91.10
2022-09-26T06:27:40.128Z,91.10
2022-09-26T06:30:10.759Z,91.20
2022-09-26T06:32:39.257Z,91.20
2022-09-26T06:35:38.509Z,91.10
2022-09-26T06:38:28.641Z,91.10
2022-09-26T06:40:55.616Z,91.00
2022-09-26T06:43:23.077Z,91.10
2022-09-26T06:46:11.278Z,91.10
2022-09-26T06:48:49.978Z,91.10
2022-09-26T06:51:20.424Z,91.20
2022-09-26T06:53:47.331Z,91.30
2022-09-26T06:56:18.749Z,91.30
2022-09-26T06:58:45.682Z,91.40
2022-09-26T07:01:15.187Z,91.50
2022-09-26T07:03:50.947Z,91.70
2022-09-26T07:06:28.946Z,91.70
2022-09-26T07:09:02.630Z,91.70
2022-09-26T07:12:09.846Z,91.90
2022-09-26T07:14:30.914Z,91.80
2022-09-26T07:17:03.912Z,91.70
2022-09-26T07:19:52.177Z,91.70
2022-09-26T07:22:37.731Z,91.70
2022-09-26T07:25:06.304Z,91.80
2022-09-26T07:27:33.436Z,91.80
2022-09-26T07:30:00.955Z,91.70
2022-09-26T07:32:32.896Z,91.90
2022-09-26T07:35:24.835Z,92.10
2022-09-26T07:37:52.918Z,92.40
2022-09-26T07:40:21.033Z,92.40
2022-09-26T07:43:09.269Z,92.50
2022-09-26T07:45:53.498Z,92.50
2022-09-26T07:48:40.116Z,92.60
2022-09-26T07:51:39.526Z,92.60
2022-09-26T07:54:10.293Z,92.80
2022-09-26T07:57:06.717Z,92.90
2022-09-26T07:59:39.743Z,93.10
2022-09-26T08:02:34.565Z,93.00
2022-09-26T08:05:06.361Z,93.10
2022-09-26T08:07:37.372Z,93.20
2022-09-26T08:10:32.289Z,93.30
2022-09-26T08:13:34.506Z,93.40
2022-09-26T08:16:24.640Z,93.60
2022-09-26T08:18:55.608Z,93.70
2022-09-26T08:21:24.277Z,93.80
2022-09-26T08:23:54.139Z,93.70
2022-09-26T08:26:44.444Z,93.90
2022-09-26T08:29:19.011Z,94.00
2022-09-26T08:31:49.442Z,94.00
2022-09-26T08:34:19.293Z,94.10
2022-09-26T08:37:07.848Z,94.10
2022-09-26T08:39:48.372Z,94.00
2022-09-26T08:43:25.976Z,94.00
2022-09-26T08:47:00.213Z,94.10
2022-09-26T08:50:11.388Z,94.00
2022-09-26T08:53:01.842Z,94.10
2022-09-26T08:55:44.713Z,94.10
2022-09-26T08:58:26.587Z,94.30
2022-09-26T09:01:13.255Z,94.40
2022-09-26T09:04:12.167Z,94.50
2022-09-26T09:06:39.124Z,94.70
2022-09-26T09:09:06.889Z,94.70
2022-09-26T09:12:04.099Z,94.60
2022-09-26T09:15:20.407Z,94.70
2022-09-26T09:18:35.596Z,94.90
2022-09-26T09:21:52.227Z,95.20
2022-09-26T09:25:04.869Z,95.30
2022-09-26T09:28:08.559Z,95.30
2022-09-26T09:30:43.712Z,95.40
2022-09-26T09:33:53.221Z,95.70
2022-09-26T09:36:51.266Z,95.70
2022-09-26T09:39:40.014Z,95.80
2022-09-26T09:42:43.048Z,95.60
2022-09-26T09:45:25.376Z,95.60
2022-09-26T09:47:52.599Z,95.70
2022-09-26T09:50:53.562Z,95.80
2022-09-26T09:54:21.669Z,96.00
2022-09-26T09:57:04.020Z,95.70
2022-09-26T09:59:50.354Z,95.80
2022-09-26T10:02:20.184Z,96.10
2022-09-26T10:05:23.047Z,96.00
2022-09-26T10:07:58.281Z,96.30
2022-09-26T10:11:28.161Z,96.00
2022-09-26T10:14:12.224Z,95.90
2022-09-26T10:17:10.224Z,95.60
2022-09-26T10:19:57.413Z,95.70
2022-09-26T10:22:45.000Z,95.60
2022-09-26T10:25:28.146Z,95.50
2022-09-26T10:27:59.120Z,95.40
2022-09-26T10:30:33.383Z,95.50
2022-09-26T10:33:05.693Z,95.50
2022-09-26T10:35:45.850Z,95.30
2022-09-26T10:38:28.589Z,95.40
2022-09-26T10:41:24.361Z,95.00
2022-09-26T10:43:56.303Z,94.90
2022-09-26T10:46:46.379Z,94.90
2022-09-26T10:49:59.112Z,94.40
2022-09-26T10:52:57.070Z,94.20
2022-09-26T10:55:36.502Z,93.90
2022-09-26T10:58:15.230Z,93.90
2022-09-26T11:00:52.958Z,93.60
2022-09-26T11:03:31.014Z,93.60
2022-09-26T11:06:33.016Z,93.30
2022-09-26T11:09:09.261Z,93.10
2022-09-26T11:11:56.041Z,92.50
2022-09-26T11:14:32.675Z,91.50
2022-09-26T11:17:11.606Z,91.20
2022-09-26T11:19:57.405Z,91.40
2022-09-26T11:22:53.766Z,91.10
2022-09-26T11:25:29.194Z,90.80
2022-09-26T11:28:17.451Z,90.90
2022-09-26T11:31:16.527Z,90.80
2022-09-26T11:33:49.137Z,90.80
2022-09-26T11:37:07.095Z,90.80
2022-09-26T11:40:07.230Z,90.90
2022-09-26T11:42:54.748Z,91.10
2022-09-26T11:45:59.431Z,91.00
2022-09-26T11:48:54.060Z,90.70
2022-09-26T11:52:14.416Z,91.20
2022-09-26T11:55:24.148Z,90.40
2022-09-26T11:58:33.310Z,90.50
2022-09-26T12:01:29.242Z,90.50
2022-09-26T12:04:21.547Z,90.80
2022-09-26T12:07:43.943Z,90.50
2022-09-26T12:10:43.234Z,90.80
2022-09-26T12:13:42.647Z,91.00
2022-09-26T12:16:16.853Z,91.00
2022-09-26T12:19:05.281Z,91.40
2022-09-26T12:22:04.556Z,91.50
2022-09-26T12:24:51.470Z,91.70
2022-09-26T12:27:51.316Z,92.00
2022-09-26T12:30:26.246Z,92.00
2022-09-26T12:33:14.618Z,92.00
2022-09-26T12:36:24.258Z,92.30
2022-09-26T12:39:28.731Z,92.40
2022-09-26T12:42:14.437Z,92.60
2022-09-26T12:45:02.468Z,92.60
2022-09-26T12:47:43.304Z,92.90
2022-09-26T12:50:39.525Z,92.60
2022-09-26T12:53:42.380Z,92.80
2022-09-26T12:56:30.035Z,93.20
2022-09-26T12:59:23.866Z,93.50
2022-09-26T13:02:42.379Z,93.70
2022-09-26T13:05:45.061Z,93.80
2022-09-26T13:08:53.219Z,94.00
2022-09-26T13:11:44.192Z,94.20
2022-09-26T13:14:42.101Z,94.00
2022-09-26T13:17:23.611Z,94.40
2022-09-26T13:19:59.544Z,94.60
2022-09-26T13:23:02.496Z,94.60
2022-09-26T13:25:49.359Z,94.70
2022-09-26T13:28:26.253Z,94.30
2022-09-26T13:31:09.159Z,94.60
2022-09-26T13:33:47.081Z,94.80
2022-09-26T13:36:17.913Z,95.00
2022-09-26T13:38:56.215Z,95.10
2022-09-26T13:41:26.265Z,95.40
2022-09-26T13:44:06.317Z,95.50
2022-09-26T13:47:19.741Z,95.60
2022-09-26T13:50:41.555Z,95.30
2022-09-26T13:53:26.835Z,95.60
2022-09-26T13:56:34.956Z,96.00
2022-09-26T13:59:11.014Z,96.20
2022-09-26T14:01:58.557Z,96.40
2022-09-26T14:04:36.236Z,96.50
2022-09-26T14:07:29.004Z,96.80
2022-09-26T14:10:05.085Z,97.00
2022-09-26T14:13:10.520Z,97.20
2022-09-26T14:15:57.044Z,97.30
2022-09-26T14:19:06.375Z,97.40
2022-09-26T14:21:33.359Z,97.40
2022-09-26T14:24:41.526Z,97.80
2022-09-26T14:27:11.468Z,97.70
2022-09-26T14:29:53.050Z,97.70
2022-09-26T14:32:27.856Z,97.90
2022-09-26T14:35:00.284Z,98.00
2022-09-26T14:37:33.297Z,98.10
2022-09-26T14:40:00.168Z,98.20
2022-09-26T14:42:50.156Z,98.30
2022-09-26T14:45:16.929Z,98.30
2022-09-26T14:48:06.657Z,98.30
2022-09-26T14:50:56.328Z,98.20
2022-09-26T14:53:42.507Z,98.30
2022-09-26T14:56:14.466Z,98.30
2022-09-26T14:58:51.814Z,98.40
2022-09-26T15:01:38.621Z,98.50
2022-09-26T15:04:20.580Z,98.50
2022-09-26T15:06:52.812Z,98.60
2022-09-26T15:09:39.310Z,98.70
2022-09-26T15:12:22.364Z,98.80
2022-09-26T15:15:32.879Z,99.00
2022-09-26T15:18:35.570Z,99.10
2022-09-26T15:21:23.238Z,99.00
2022-09-26T15:23:54.302Z,99.00
2022-09-26T15:26:30.705Z,99.10
2022-09-26T15:28:59.458Z,99.20
2022-09-26T15:31:43.510Z,99.10
2022-09-26T15:34:16.109Z,99.20
2022-09-26T15:36:48.600Z,99.30
2022-09-26T15:39:30.934Z,99.40
2022-09-26T15:42:49.066Z,99.50
2022-09-26T15:45:23.162Z,99.60
2022-09-26T15:47:50.029Z,99.70
2022-09-26T15:50:31.438Z,99.70
2022-09-26T15:53:11.706Z,99.70
2022-09-26T15:55:59.179Z,99.80
2022-09-26T15:58:35.202Z,99.80
2022-09-26T16:01:02.956Z,99.80
2022-09-26T16:03:41.236Z,99.80
2022-09-26T16:06:35.388Z,99.90
2022-09-26T16:09:11.019Z,99.90
2022-09-26T16:12:01.056Z,99.90
2022-09-26T16:14:47.873Z,99.90
2022-09-26T16:17:40.107Z,99.90
2022-09-26T16:20:09.865Z,99.90
2022-09-26T16:22:36.756Z,99.90
2022-09-26T16:25:15.660Z,99.90
2022-09-26T16:27:43.285Z,99.90
2022-09-26T16:30:23.519Z,99.90
2022-09-26T16:32:52.819Z,99.90
2022-09-26T16:35:29.174Z,99.90
2022-09-26T16:38:02.577Z,99.90
2022-09-26T16:40:32.665Z,99.80
2022-09-26T16:43:28.615Z,99.70
2022-09-26T16:46:17.901Z,99.50
2022-09-26T16:48:50.602Z,99.20
2022-09-26T16:51:39.486Z,99.10
2022-09-26T16:54:19.266Z,99.00
2022-09-26T16:56:50.310Z,98.90
2022-09-26T16:59:22.382Z,98.80
2022-09-26T17:01:54.615Z,98.80
2022-09-26T17:04:36.719Z,98.80
2022-09-26T17:07:12.643Z,98.60
2022-09-26T17:09:42.314Z,98.60
2022-09-26T17:12:21.243Z,98.70
2022-09-26T17:14:51.925Z,98.60
2022-09-26T17:17:23.853Z,98.60
2022-09-26T17:19:59.034Z,98.50
2022-09-26T17:22:28.561Z,98.60
2022-09-26T17:24:55.495Z,98.70
2022-09-26T17:27:32.502Z,98.80
2022-09-26T17:30:03.039Z,98.80
2022-09-26T17:32:37.598Z,99.00
2022-09-26T17:35:14.394Z,99.00
2022-09-26T17:37:41.193Z,99.10
2022-09-26T17:40:23.913Z,99.10
2022-09-26T17:42:55.169Z,99.10
2022-09-26T17:45:36.325Z,99.10
2022-09-26T17:48:12.004Z,99.10
2022-09-26T17:50:39.757Z,99.20
2022-09-26T17:53:10.674Z,99.20
2022-09-26T17:55:37.567Z,99.20
2022-09-26T17:58:07.655Z,99.30
2022-09-26T18:00:38.778Z,99.30
2022-09-26T18:03:10.196Z,99.40
2022-09-26T18:05:39.105Z,99.50
2022-09-26T18:08:36.415Z,99.60
2022-09-26T18:11:09.384Z,99.60
2022-09-26T18:13:46.243Z,99.60
2022-09-26T18:16:14.802Z,99.60
2022-09-26T18:18:41.742Z,99.60
2022-09-26T18:21:15.353Z,99.60
2022-09-26T18:23:56.521Z,99.60
2022-09-26T18:26:31.830Z,99.50
2022-09-26T18:29:03.365Z,99.50
2022-09-26T18:31:32.280Z,99.60
2022-09-26T18:33:59.954Z,99.60
2022-09-26T18:36:35.092Z,99.70
2022-09-26T18:39:01.891Z,99.80
2022-09-26T18:41:29.565Z,99.80
2022-09-26T18:44:00.444Z,99.90
2022-09-26T18:46:29.547Z,99.90
2022-09-26T18:48:58.993Z,99.90
2022-09-26T18:51:26.562Z,99.90
2022-09-26T18:53:53.666Z,99.90
2022-09-26T18:56:38.842Z,99.90
2022-09-26T18:59:12.128Z,99.90
2022-09-26T19:01:42.618Z,99.90
2022-09-26T19:04:18.788Z,99.90
2022-09-26T19:06:52.432Z,99.90
2022-09-26T19:09:21.870Z,99.90
2022-09-26T19:11:48.984Z,99.90
2022-09-26T19:14:17.206Z,99.90
2022-09-26T19:16:46.368Z,99.90
2022-09-26T19:19:14.057Z,99.90
2022-09-26T19:21:49.977Z,99.90
2022-09-26T19:24:40.452Z,99.90
2022-09-26T19:27:23.154Z,99.90
2022-09-26T19:30:29.947Z,99.90
2022-09-26T19:32:57.290Z,99.90
2022-09-26T19:35:34.674Z,99.90
2022-09-26T19:38:06.181Z,99.90
2022-09-26T19:40:33.118Z,99.90
2022-09-26T19:42:59.987Z,99.90
2022-09-26T19:45:27.112Z,99.90
2022-09-26T19:47:56.089Z,99.90
2022-09-26T19:50:26.798Z,99.90
2022-09-26T19:52:57.249Z,99.90
2022-09-26T19:55:30.737Z,99.90
2022-09-26T19:58:11.106Z,99.90
2022-09-26T20:00:41.461Z,99.90
2022-09-26T20:03:39.703Z,99.90
2022-09-26T20:06:14.382Z,99.90
2022-09-26T20:08:42.800Z,99.90
2022-09-26T20:11:10.199Z,99.90
2022-09-26T20:13:56.310Z,99.90
2022-09-26T20:16:23.632Z,99.90
2022-09-26T20:18:51.618Z,99.90
2022-09-26T20:21:24.697Z,99.90
2022-09-26T20:23:51.746Z,99.90
2022-09-26T20:26:19.381Z,99.90
2022-09-26T20:28:46.325Z,99.90
2022-09-26T20:31:27.148Z,99.90
2022-09-26T20:33:59.121Z,99.90
2022-09-26T20:36:33.186Z,99.90
2022-09-26T20:39:06.446Z,99.90
2022-09-26T20:41:40.133Z,99.90
2022-09-26T20:44:29.735Z,99.90
2022-09-26T20:47:04.494Z,99.90
2022-09-26T20:49:43.641Z,99.90
2022-09-26T20:52:24.212Z,99.90
2022-09-26T20:54:52.255Z,99.90
2022-09-26T20:57:20.031Z,99.90
2022-09-26T20:59:46.903Z,99.90
2022-09-26T21:02:33.511Z,99.90
2022-09-26T21:05:01.755Z,99.90
2022-09-26T21:07:31.722Z,99.90
2022-09-26T21:09:58.918Z,99.90
2022-09-26T21:12:25.845Z,99.90
2022-09-26T21:14:52.703Z,99.90
2022-09-26T21:17:26.879Z,99.90
2022-09-26T21:19:55.606Z,99.90
2022-09-26T21:22:41.177Z,99.90
2022-09-26T21:25:18.402Z,99.90
2022-09-26T21:27:48.376Z,99.90
2022-09-26T21:30:16.982Z,99.90
2022-09-26T21:32:51.693Z,99.90
2022-09-26T21:35:20.721Z,99.90
2022-09-26T21:37:52.416Z,99.90
2022-09-26T21:40:22.552Z,99.90
2022-09-26T21:42:54.851Z,99.90
2022-09-26T21:45:27.100Z,99.90
2022-09-26T21:47:56.647Z,99.90
2022-09-26T21:50:28.205Z,99.90
2022-09-26T21:53:23.213Z,99.90
2022-09-26T21:55:56.242Z,99.90
2022-09-26T21:58:28.822Z,99.90
2022-09-26T22:00:57.595Z,99.90
2022-09-26T22:03:24.471Z,99.90
2022-09-26T22:05:51.827Z,99.90
2022-09-26T22:08:18.667Z,99.90
2022-09-26T22:10:45.453Z,99.90
2022-09-26T22:13:12.332Z,99.90
2022-09-26T22:15:39.245Z,99.90
2022-09-26T22:18:06.075Z,99.90
2022-09-26T22:20:34.275Z,99.90
2022-09-26T22:23:01.131Z,99.90
2022-09-26T22:25:28.249Z,99.90
2022-09-26T22:27:55.463Z,99.90
2022-09-26T22:30:24.625Z,99.90
2022-09-26T22:32:51.487Z,99.90
2022-09-26T22:35:18.457Z,99.90
2022-09-26T22:37:46.256Z,99.90
2022-09-26T22:40:13.153Z,99.90
2022-09-26T22:42:40.091Z,99.90
2022-09-26T22:45:07.597Z,99.90
2022-09-26T22:47:34.475Z,99.90
2022-09-26T22:50:01.307Z,99.90
2022-09-26T22:52:28.133Z,99.90
2022-09-26T22:54:55.081Z,99.90
2022-09-26T22:57:21.966Z,99.90
2022-09-26T22:59:48.787Z,99.90
2022-09-26T23:02:15.674Z,99.90
2022-09-26T23:04:48.205Z,99.90
2022-09-26T23:07:18.670Z,99.90
2022-09-26T23:09:45.522Z,99.90
2022-09-26T23:12:13.015Z,99.90
2022-09-26T23:14:39.856Z,99.90
2022-09-26T23:17:06.802Z,99.90
2022-09-26T23:19:33.893Z,99.90
2022-09-26T23:22:00.824Z,99.90
2022-09-26T23:24:27.730Z,99.90
2022-09-26T23:26:57.204Z,99.90
2022-09-26T23:29:24.589Z,99.90
2022-09-26T23:31:52.088Z,99.90
2022-09-26T23:34:18.990Z,99.90
2022-09-26T23:36:45.865Z,99.90
2022-09-26T23:39:12.958Z,99.90
2022-09-26T23:41:40.025Z,99.90
2022-09-26T23:44:06.937Z,99.90
2022-09-26T23:46:33.836Z,99.90
2022-09-26T23:49:00.755Z,99.90
2022-09-26T23:51:27.541Z,99.90
2022-09-26T23:53:55.203Z,99.90
2022-09-26T23:56:22.134Z,99.90
2022-09-26T23:58:49.826Z,99.90
